Time;durP1;ratioP1;P1;durP2;ratioP2;P2;SDS_P1;SDS_P2;PMS_P1;PMS_P2;Temp;Humidity;BMP_temperature;BMP_pressure;BME280_temperature;BME280_humidity;BME280_pressure;Samples;Min_cycle;Max_cycle;Signal;HPM_P1;HPM_P2
2022/02/06 00:00:44;;;;;;;7.40;2.07;;;;;;;;;;5105956;28;20221;-79
2022/02/06 00:03:13;;;;;;;6.67;2.17;;;;;;;;;;5104474;28;20291;-78
2022/02/06 00:05:41;;;;;;;7.57;1.80;;;;;;;;;;5104569;28;20300;-79
2022/02/06 00:08:11;;;;;;;6.07;1.90;;;;;;;;;;5101294;28;20233;-79
2022/02/06 00:10:38;;;;;;;10.97;2.47;;;;;;;;;;5102928;28;20707;-78
2022/02/06 00:13:05;;;;;;;6.87;1.90;;;;;;;;;;5102807;28;20225;-78
2022/02/06 00:15:32;;;;;;;5.73;2.10;;;;;;;;;;5103704;28;20198;-79
2022/02/06 00:17:59;;;;;;;5.27;2.17;;;;;;;;;;5103862;28;20296;-78
2022/02/06 00:20:32;;;;;;;7.40;2.17;;;;;;;;;;5104233;28;20234;-79
2022/02/06 00:23:05;;;;;;;4.77;2.13;;;;;;;;;;5101180;28;20217;-78
2022/02/06 00:25:43;;;;;;;9.50;2.33;;;;;;;;;;5092622;28;20210;-78
2022/02/06 00:28:19;;;;;;;8.00;2.20;;;;;;;;;;5089503;28;20206;-79
2022/02/06 00:30:54;;;;;;;6.87;2.37;;;;;;;;;;5089559;28;20220;-78
2022/02/06 00:33:35;;;;;;;8.57;2.00;;;;;;;;;;5091871;28;20251;-79
2022/02/06 00:38:01;;;;;;;12.43;2.20;;;;;;;;;;5092767;28;20201;-78
2022/02/06 00:39:06;;;;;;;10.83;1.93;;;;;;;;;;5088775;28;20623;-78
2022/02/06 00:41:34;;;;;;;9.37;2.80;;;;;;;;;;5090543;28;20237;-79
2022/02/06 00:44:04;;;;;;;8.87;2.50;;;;;;;;;;5086422;28;20189;-78
2022/02/06 00:46:32;;;;;;;10.43;2.50;;;;;;;;;;5087105;28;20202;-79
2022/02/06 00:49:03;;;;;;;8.90;2.00;;;;;;;;;;5086866;28;20233;-78
2022/02/06 00:51:40;;;;;;;7.73;1.90;;;;;;;;;;5089199;28;20222;-79
2022/02/06 00:54:08;;;;;;;7.67;2.00;;;;;;;;;;5088028;28;20725;-79
2022/02/06 00:56:39;;;;;;;9.83;1.90;;;;;;;;;;5088284;28;20202;-79
2022/02/06 00:59:07;;;;;;;9.90;2.13;;;;;;;;;;5087521;28;20274;-79
2022/02/06 01:01:36;;;;;;;9.67;1.80;;;;;;;;;;5086588;28;20260;-79
2022/02/06 01:04:03;;;;;;;4.90;1.50;;;;;;;;;;5085129;28;20206;-78
2022/02/06 01:06:30;;;;;;;7.63;1.80;;;;;;;;;;5091050;28;20205;-78
2022/02/06 01:08:58;;;;;;;9.20;1.80;;;;;;;;;;5097643;28;20651;-79
2022/02/06 01:11:26;;;;;;;8.90;1.90;;;;;;;;;;5098226;28;20313;-78
2022/02/06 01:14:03;;;;;;;5.07;1.53;;;;;;;;;;5097598;28;20217;-79
2022/02/06 01:16:34;;;;;;;4.50;1.80;;;;;;;;;;5090618;28;20655;-79
2022/02/06 01:19:05;;;;;;;7.57;1.60;;;;;;;;;;5089420;28;20205;-79
2022/02/06 01:21:44;;;;;;;9.03;2.03;;;;;;;;;;5087111;28;20424;-79
2022/02/06 01:24:15;;;;;;;2.80;1.47;;;;;;;;;;5089097;28;20221;-78
2022/02/06 01:26:48;;;;;;;2.93;1.50;;;;;;;;;;5088511;28;20201;-78
2022/02/06 01:29:24;;;;;;;7.17;2.00;;;;;;;;;;5084569;28;20201;-78
2022/02/06 01:31:59;;;;;;;9.37;1.80;;;;;;;;;;5090796;28;20304;-79
2022/02/06 01:34:33;;;;;;;9.33;2.43;;;;;;;;;;5088183;28;20229;-79
2022/02/06 01:37:07;;;;;;;7.07;1.70;;;;;;;;;;5087987;28;20201;-79
2022/02/06 01:42:28;;;;;;;5.30;1.73;;;;;;;;;;5080740;28;20206;-78
2022/02/06 01:45:10;;;;;;;8.30;1.60;;;;;;;;;;5087258;28;20627;-79
2022/02/06 02:01:35;;;;;;;9.20;2.00;;;;;;;;;;5084790;28;20217;-79
2022/02/06 02:04:10;;;;;;;10.47;1.87;;;;;;;;;;5086780;28;20293;-78
2022/02/06 02:06:58;;;;;;;4.90;1.50;;;;;;;;;;5086559;28;20197;-78
2022/02/06 02:09:53;;;;;;;4.70;1.90;;;;;;;;;;5085910;28;20560;-79
2022/02/06 02:12:36;;;;;;;6.17;1.60;;;;;;;;;;5085913;28;20282;-78
2022/02/06 02:15:35;;;;;;;4.07;1.57;;;;;;;;;;5086267;28;20217;-79
2022/02/06 02:18:18;;;;;;;6.30;1.63;;;;;;;;;;5085988;28;20198;-78
2022/02/06 02:21:04;;;;;;;3.43;1.57;;;;;;;;;;5087265;28;20543;-78
2022/02/06 02:23:47;;;;;;;5.43;1.47;;;;;;;;;;5085714;28;20197;-79
2022/02/06 02:26:44;;;;;;;6.27;1.90;;;;;;;;;;5086388;28;20278;-78
2022/02/06 02:32:33;;;;;;;5.50;2.10;;;;;;;;;;5071039;28;20197;-79
2022/02/06 02:43:53;;;;;;;11.60;2.33;;;;;;;;;;5089557;28;20246;-79
2022/02/06 02:46:27;;;;;;;10.60;2.10;;;;;;;;;;5085653;28;20205;-79
2022/02/06 02:48:56;;;;;;;9.77;1.87;;;;;;;;;;5085352;28;20224;-79
2022/02/06 02:51:26;;;;;;;6.50;2.00;;;;;;;;;;5089181;28;20342;-79
2022/02/06 02:53:58;;;;;;;6.37;2.10;;;;;;;;;;5087541;28;20217;-79
2022/02/06 02:56:37;;;;;;;4.50;1.83;;;;;;;;;;5088345;28;20617;-79
2022/02/06 02:59:11;;;;;;;5.77;1.87;;;;;;;;;;5088046;28;20260;-77
2022/02/06 03:01:44;;;;;;;5.77;2.27;;;;;;;;;;5088465;28;20224;-78
2022/02/06 03:04:11;;;;;;;6.67;1.77;;;;;;;;;;5087533;28;20193;-79
2022/02/06 03:06:39;;;;;;;6.13;1.93;;;;;;;;;;5088902;28;20265;-79
2022/02/06 03:09:07;;;;;;;7.53;2.30;;;;;;;;;;5086108;28;20595;-79
2022/02/06 03:11:35;;;;;;;8.37;2.03;;;;;;;;;;5090202;28;20317;-78
2022/02/06 03:14:06;;;;;;;7.87;1.90;;;;;;;;;;5086877;28;20798;-79
2022/02/06 03:16:36;;;;;;;6.80;1.73;;;;;;;;;;5087288;28;20246;-79
2022/02/06 03:19:07;;;;;;;6.47;1.60;;;;;;;;;;5089526;28;20220;-79
2022/02/06 03:21:35;;;;;;;7.80;1.80;;;;;;;;;;5087528;28;20718;-79
2022/02/06 03:26:53;;;;;;;8.60;2.10;;;;;;;;;;5085115;28;20527;-79
2022/02/06 03:29:21;;;;;;;8.17;2.20;;;;;;;;;;5091659;28;20194;-80
2022/02/06 03:31:49;;;;;;;9.93;1.80;;;;;;;;;;5096001;28;20710;-79
2022/02/06 03:34:16;;;;;;;9.63;2.17;;;;;;;;;;5095397;28;20309;-80
2022/02/06 03:36:43;;;;;;;8.27;2.30;;;;;;;;;;5095012;28;20198;-80
2022/02/06 03:39:11;;;;;;;9.40;1.83;;;;;;;;;;5093838;28;20718;-80
2022/02/06 03:41:52;;;;;;;8.10;1.80;;;;;;;;;;5092504;28;20509;-80
2022/02/06 03:44:26;;;;;;;6.30;1.87;;;;;;;;;;5092736;28;20670;-80
2022/02/06 03:47:05;;;;;;;7.57;1.70;;;;;;;;;;5095950;28;20193;-80
2022/02/06 03:49:44;;;;;;;4.97;1.67;;;;;;;;;;5095666;28;20208;-80
2022/02/06 03:52:11;;;;;;;8.87;2.23;;;;;;;;;;5093972;28;20205;-80
2022/02/06 03:54:38;;;;;;;8.03;2.00;;;;;;;;;;5094032;28;20281;-79
2022/02/06 03:57:06;;;;;;;10.83;2.13;;;;;;;;;;5092414;28;20217;-80
2022/02/06 03:59:35;;;;;;;6.40;1.77;;;;;;;;;;5090248;28;20734;-80
2022/02/06 04:02:03;;;;;;;7.80;1.63;;;;;;;;;;5096271;28;20198;-80
2022/02/06 04:04:30;;;;;;;5.40;1.70;;;;;;;;;;5096817;28;20233;-80
2022/02/06 04:07:04;;;;;;;14.07;2.03;;;;;;;;;;5097588;28;20194;-80
2022/02/06 04:09:36;;;;;;;9.73;2.17;;;;;;;;;;5101897;28;20208;-80
2022/02/06 04:12:04;;;;;;;4.63;1.60;;;;;;;;;;5094839;28;20221;-80
2022/02/06 04:14:41;;;;;;;11.20;1.92;;;;;;;;;;5097796;28;20931;-80
2022/02/06 04:17:20;;;;;;;7.07;1.77;;;;;;;;;;5097456;28;20201;-80
2022/02/06 04:19:47;;;;;;;7.03;1.97;;;;;;;;;;5096313;28;20269;-80
2022/02/06 04:22:14;;;;;;;9.43;1.60;;;;;;;;;;5095793;28;20711;-80
2022/02/06 04:24:41;;;;;;;7.97;1.70;;;;;;;;;;5096492;28;20194;-81
2022/02/06 04:27:09;;;;;;;10.57;2.13;;;;;;;;;;5095664;28;20798;-80
2022/02/06 04:29:36;;;;;;;8.70;1.80;;;;;;;;;;5096149;28;20644;-80
2022/02/06 04:32:03;;;;;;;5.17;1.33;;;;;;;;;;5094511;28;20208;-80
2022/02/06 04:34:32;;;;;;;3.13;1.50;;;;;;;;;;5096701;28;20267;-80
2022/02/06 04:37:05;;;;;;;6.90;1.23;;;;;;;;;;5092197;28;20205;-80
2022/02/06 04:42:34;;;;;;;3.77;1.30;;;;;;;;;;5078737;28;20194;-80
2022/02/06 04:51:17;;;;;;;6.93;1.07;;;;;;;;;;5081458;28;20710;-80
2022/02/06 05:16:04;;;;;;;4.67;1.70;;;;;;;;;;5091328;28;20213;-80
2022/02/06 05:24:29;;;;;;;3.60;1.37;;;;;;;;;;5093007;28;20242;-79
2022/02/06 05:27:09;;;;;;;6.77;1.40;;;;;;;;;;5094700;28;20202;-79
2022/02/06 05:29:45;;;;;;;5.57;1.30;;;;;;;;;;5092527;28;20568;-80
2022/02/06 05:32:19;;;;;;;7.53;1.27;;;;;;;;;;5091618;28;20204;-79
2022/02/06 05:34:46;;;;;;;4.13;1.20;;;;;;;;;;5090235;28;20247;-79
2022/02/06 05:37:13;;;;;;;2.43;1.00;;;;;;;;;;5092094;28;20206;-80
2022/02/06 05:39:42;;;;;;;6.07;1.30;;;;;;;;;;5090164;28;20200;-80
2022/02/06 05:42:09;;;;;;;4.20;1.17;;;;;;;;;;5092675;28;20285;-79
2022/02/06 05:44:37;;;;;;;7.90;1.30;;;;;;;;;;5091514;28;20199;-80
2022/02/06 05:47:04;;;;;;;3.40;1.03;;;;;;;;;;5090106;28;20237;-79
2022/02/06 05:49:31;;;;;;;6.30;1.20;;;;;;;;;;5090566;28;20202;-80
2022/02/06 05:51:58;;;;;;;3.63;1.23;;;;;;;;;;5092655;28;20209;-80
2022/02/06 05:54:26;;;;;;;3.03;1.10;;;;;;;;;;5093933;28;20222;-80
2022/02/06 05:56:54;;;;;;;5.70;1.53;;;;;;;;;;5093580;28;20707;-80
2022/02/06 05:59:21;;;;;;;4.27;1.40;;;;;;;;;;5094054;28;20209;-80
2022/02/06 06:01:50;;;;;;;4.67;1.20;;;;;;;;;;5092643;28;20221;-79
2022/02/06 06:04:17;;;;;;;4.37;0.87;;;;;;;;;;5094891;28;20199;-79
2022/02/06 06:06:51;;;;;;;3.23;1.20;;;;;;;;;;5092420;28;20201;-79
2022/02/06 06:09:18;;;;;;;4.40;1.40;;;;;;;;;;5092008;28;20200;-80
2022/02/06 06:11:45;;;;;;;2.27;1.10;;;;;;;;;;5092576;28;20257;-80
2022/02/06 06:14:13;;;;;;;2.37;1.20;;;;;;;;;;5091862;28;20686;-79
2022/02/06 06:16:41;;;;;;;2.30;1.07;;;;;;;;;;5091539;28;20238;-79
2022/02/06 06:19:08;;;;;;;4.70;1.27;;;;;;;;;;5090765;28;20225;-80
2022/02/06 06:21:39;;;;;;;2.67;0.97;;;;;;;;;;5092993;28;20569;-80
2022/02/06 06:24:06;;;;;;;2.50;0.97;;;;;;;;;;5092606;28;20251;-80
2022/02/06 06:26:37;;;;;;;3.20;0.90;;;;;;;;;;5085526;28;20206;-80
2022/02/06 06:29:05;;;;;;;3.07;1.07;;;;;;;;;;5086480;28;20232;-80
2022/02/06 06:31:33;;;;;;;2.50;1.30;;;;;;;;;;5090081;28;20304;-80
2022/02/06 06:34:00;;;;;;;2.53;0.90;;;;;;;;;;5093819;28;20281;-80
2022/02/06 06:36:30;;;;;;;3.13;0.87;;;;;;;;;;5087254;28;20248;-80
2022/02/06 06:38:57;;;;;;;2.40;0.87;;;;;;;;;;5090814;28;20197;-80
2022/02/06 06:41:25;;;;;;;1.07;0.73;;;;;;;;;;5075642;22;20251;-83
2022/02/06 06:43:54;;;;;;;3.37;1.13;;;;;;;;;;5035807;28;20605;-83
2022/02/06 06:46:21;;;;;;;2.83;0.93;;;;;;;;;;5033029;28;20636;-83
2022/02/06 06:48:49;;;;;;;2.83;0.77;;;;;;;;;;5037263;28;20295;-83
2022/02/06 06:51:17;;;;;;;2.33;0.70;;;;;;;;;;5035841;28;20275;-84
2022/02/06 06:53:47;;;;;;;3.53;1.10;;;;;;;;;;5036990;28;20228;-84
2022/02/06 06:56:21;;;;;;;2.20;1.13;;;;;;;;;;5035285;28;20266;-85
2022/02/06 06:58:51;;;;;;;2.60;0.70;;;;;;;;;;5030660;28;20203;-83
2022/02/06 07:01:43;;;;;;;2.27;1.20;;;;;;;;;;5029941;28;20212;-83
2022/02/06 07:04:12;;;;;;;1.97;1.00;;;;;;;;;;5034614;28;20233;-84
2022/02/06 07:06:39;;;;;;;1.83;0.90;;;;;;;;;;5037579;28;21010;-84
2022/02/06 07:09:06;;;;;;;2.00;1.10;;;;;;;;;;5033876;28;20318;-84
2022/02/06 07:11:33;;;;;;;2.20;0.90;;;;;;;;;;5031921;28;20246;-84
2022/02/06 07:14:00;;;;;;;2.90;1.00;;;;;;;;;;5029748;28;20306;-81
2022/02/06 07:16:27;;;;;;;1.43;0.90;;;;;;;;;;5033722;28;20220;-82
2022/02/06 07:18:54;;;;;;;1.43;0.90;;;;;;;;;;5035389;28;20209;-83
2022/02/06 07:21:24;;;;;;;2.93;0.77;;;;;;;;;;5031078;28;20290;-83
2022/02/06 07:23:52;;;;;;;2.40;0.93;;;;;;;;;;5031260;28;20260;-84
2022/02/06 07:26:20;;;;;;;0.90;0.57;;;;;;;;;;5030565;28;20211;-84
2022/02/06 07:28:50;;;;;;;1.93;0.70;;;;;;;;;;5036816;28;20212;-83
2022/02/06 07:31:17;;;;;;;2.50;1.00;;;;;;;;;;5028523;28;20210;-82
2022/02/06 07:33:44;;;;;;;2.57;0.90;;;;;;;;;;5035022;28;20246;-82
2022/02/06 07:36:11;;;;;;;2.47;1.20;;;;;;;;;;5039275;28;20554;-82
2022/02/06 07:38:40;;;;;;;1.77;1.00;;;;;;;;;;5037993;28;20234;-82
2022/02/06 07:41:07;;;;;;;3.33;0.93;;;;;;;;;;5039722;28;20678;-84
2022/02/06 07:43:35;;;;;;;1.03;0.53;;;;;;;;;;5034019;28;20307;-82
2022/02/06 07:46:07;;;;;;;2.40;0.60;;;;;;;;;;5037802;28;20211;-83
2022/02/06 07:48:34;;;;;;;1.77;0.80;;;;;;;;;;5034329;28;20585;-84
2022/02/06 07:51:02;;;;;;;4.03;0.70;;;;;;;;;;5033456;28;20692;-83
2022/02/06 07:53:30;;;;;;;1.23;0.80;;;;;;;;;;5026676;28;20597;-84
2022/02/06 07:55:59;;;;;;;0.90;0.40;;;;;;;;;;5033031;28;20223;-83
2022/02/06 07:58:26;;;;;;;0.97;0.70;;;;;;;;;;5035571;28;20207;-83
2022/02/06 08:00:53;;;;;;;2.37;0.67;;;;;;;;;;5034871;28;20364;-83
2022/02/06 08:03:20;;;;;;;1.93;0.80;;;;;;;;;;5034403;28;20245;-84
2022/02/06 08:05:47;;;;;;;3.10;0.80;;;;;;;;;;5039837;28;20576;-83
2022/02/06 08:08:15;;;;;;;3.93;0.80;;;;;;;;;;5036414;28;20203;-84
2022/02/06 08:10:42;;;;;;;1.60;0.77;;;;;;;;;;5031142;28;20230;-84
2022/02/06 08:13:20;;;;;;;1.40;0.80;;;;;;;;;;5036404;28;20220;-83
2022/02/06 08:15:48;;;;;;;1.17;0.70;;;;;;;;;;5037256;28;20227;-84
2022/02/06 08:18:15;;;;;;;4.93;1.70;;;;;;;;;;5038976;28;20265;-83
2022/02/06 08:20:42;;;;;;;1.23;0.80;;;;;;;;;;5042338;28;20218;-84
2022/02/06 08:23:09;;;;;;;3.40;0.90;;;;;;;;;;5040851;28;20232;-84
2022/02/06 08:25:36;;;;;;;4.27;0.93;;;;;;;;;;5043460;28;20210;-84
2022/02/06 08:28:04;;;;;;;3.33;0.80;;;;;;;;;;5041180;28;20211;-84
2022/02/06 08:30:32;;;;;;;3.20;1.20;;;;;;;;;;5041059;28;20206;-83
2022/02/06 08:33:00;;;;;;;4.63;1.90;;;;;;;;;;5042714;28;20219;-83
2022/02/06 08:35:27;;;;;;;5.23;2.67;;;;;;;;;;5046254;28;20867;-82
2022/02/06 08:37:54;;;;;;;4.40;2.30;;;;;;;;;;5039143;28;20223;-84
2022/02/06 08:40:21;;;;;;;2.20;1.20;;;;;;;;;;5045952;28;20257;-83
2022/02/06 08:42:49;;;;;;;1.10;0.90;;;;;;;;;;5045763;28;20266;-83
2022/02/06 08:45:17;;;;;;;2.07;0.80;;;;;;;;;;5040307;28;20226;-83
2022/02/06 08:47:50;;;;;;;3.30;0.90;;;;;;;;;;5043872;28;20259;-82
2022/02/06 08:50:17;;;;;;;1.27;0.80;;;;;;;;;;5035052;28;20307;-83
2022/02/06 08:52:44;;;;;;;6.43;2.17;;;;;;;;;;5043126;28;20710;-83
2022/02/06 08:55:12;;;;;;;7.17;2.97;;;;;;;;;;5036812;28;20228;-84
2022/02/06 08:57:44;;;;;;;7.73;3.30;;;;;;;;;;5048315;28;20229;-85
2022/02/06 09:00:12;;;;;;;2.60;0.77;;;;;;;;;;5036288;28;20208;-84
2022/02/06 09:02:39;;;;;;;5.23;2.23;;;;;;;;;;5041891;28;20758;-82
2022/02/06 09:05:08;;;;;;;6.03;2.50;;;;;;;;;;5044007;28;20232;-83
2022/02/06 09:07:36;;;;;;;2.87;1.30;;;;;;;;;;5042968;28;20249;-83
2022/02/06 09:10:03;;;;;;;0.83;0.50;;;;;;;;;;5042735;28;20290;-84
2022/02/06 09:12:31;;;;;;;1.70;1.17;;;;;;;;;;5034173;28;20228;-82
2022/02/06 09:14:58;;;;;;;2.03;0.80;;;;;;;;;;5029569;28;20206;-83
2022/02/06 09:17:26;;;;;;;2.27;0.50;;;;;;;;;;5037723;28;20214;-84
2022/02/06 09:19:54;;;;;;;1.27;0.50;;;;;;;;;;5035720;28;20203;-82
2022/02/06 09:22:22;;;;;;;1.23;0.60;;;;;;;;;;5034209;28;20207;-83
2022/02/06 09:24:50;;;;;;;0.70;0.50;;;;;;;;;;5036102;28;20207;-83
2022/02/06 09:27:17;;;;;;;0.87;0.60;;;;;;;;;;5006928;28;20219;-83
2022/02/06 09:29:44;;;;;;;0.97;0.57;;;;;;;;;;5038419;28;20207;-84
2022/02/06 09:37:05;;;;;;;2.77;0.57;;;;;;;;;;5034868;28;20609;-83
2022/02/06 09:39:38;;;;;;;2.43;0.50;;;;;;;;;;5035126;28;20246;-81
2022/02/06 09:42:05;;;;;;;1.40;0.60;;;;;;;;;;5036330;28;20203;-82
2022/02/06 09:44:33;;;;;;;2.60;0.67;;;;;;;;;;5038651;28;20306;-82
2022/02/06 09:47:00;;;;;;;4.37;1.10;;;;;;;;;;5032858;28;20210;-82
2022/02/06 09:49:28;;;;;;;1.77;0.87;;;;;;;;;;5029714;28;20207;-82
2022/02/06 09:51:55;;;;;;;1.93;0.93;;;;;;;;;;5038496;28;20747;-82
2022/02/06 09:54:24;;;;;;;3.13;1.57;;;;;;;;;;5031015;28;20219;-82
2022/02/06 09:56:54;;;;;;;2.70;1.20;;;;;;;;;;5031529;28;20381;-83
2022/02/06 09:59:22;;;;;;;1.17;0.73;;;;;;;;;;5030359;28;20196;-84
2022/02/06 10:01:50;;;;;;;1.47;0.80;;;;;;;;;;5031471;28;20230;-84
2022/02/06 10:04:19;;;;;;;1.00;0.60;;;;;;;;;;5033369;28;20218;-83
2022/02/06 10:06:50;;;;;;;0.73;0.50;;;;;;;;;;5032800;28;20223;-84
2022/02/06 10:09:31;;;;;;;0.67;0.60;;;;;;;;;;5035953;28;20230;-84
2022/02/06 10:12:00;;;;;;;1.73;1.10;;;;;;;;;;5037329;28;20198;-82
2022/02/06 10:14:29;;;;;;;2.63;1.20;;;;;;;;;;5036154;28;20443;-83
2022/02/06 10:16:56;;;;;;;1.43;0.80;;;;;;;;;;5033409;28;20763;-84
2022/02/06 10:19:24;;;;;;;4.03;1.70;;;;;;;;;;5036036;28;20286;-83
2022/02/06 10:21:51;;;;;;;4.63;2.80;;;;;;;;;;5034392;28;20210;-82
2022/02/06 10:24:26;;;;;;;3.63;2.00;;;;;;;;;;5035874;28;20231;-84
2022/02/06 10:27:12;;;;;;;6.80;4.50;;;;;;;;;;5036130;28;20368;-83
2022/02/06 10:29:43;;;;;;;3.70;1.60;;;;;;;;;;5039162;28;20207;-85
2022/02/06 10:32:16;;;;;;;7.50;2.07;;;;;;;;;;5041133;28;20214;-83
2022/02/06 10:34:46;;;;;;;3.40;1.40;;;;;;;;;;5035670;28;20706;-83
2022/02/06 10:37:16;;;;;;;3.33;2.20;;;;;;;;;;5025642;28;20637;-83
2022/02/06 10:39:53;;;;;;;4.30;2.37;;;;;;;;;;5030864;28;20271;-83
2022/02/06 10:42:22;;;;;;;6.63;3.33;;;;;;;;;;5025842;28;20203;-84
2022/02/06 10:44:51;;;;;;;4.00;1.43;;;;;;;;;;5027411;28;20214;-83
2022/02/06 10:47:31;;;;;;;4.40;2.37;;;;;;;;;;5031914;28;20199;-84
2022/02/06 10:50:05;;;;;;;35.73;18.00;;;;;;;;;;5028734;28;20234;-83
2022/02/06 10:52:32;;;;;;;10.20;4.73;;;;;;;;;;5032014;28;20239;-84
2022/02/06 10:55:00;;;;;;;3.43;1.60;;;;;;;;;;5035094;28;20200;-84
2022/02/06 10:57:28;;;;;;;3.93;1.67;;;;;;;;;;5032075;28;20230;-84
2022/02/06 10:59:57;;;;;;;9.13;5.03;;;;;;;;;;5032593;28;20266;-82
2022/02/06 11:02:25;;;;;;;8.27;4.80;;;;;;;;;;5031066;28;20650;-83
2022/02/06 11:04:56;;;;;;;9.13;3.10;;;;;;;;;;5030448;28;20208;-82
2022/02/06 11:07:23;;;;;;;10.80;5.57;;;;;;;;;;5040753;28;20210;-83
2022/02/06 11:09:51;;;;;;;5.10;3.00;;;;;;;;;;5037448;28;20207;-83
2022/02/06 11:12:20;;;;;;;2.13;1.17;;;;;;;;;;5029041;28;20286;-84
2022/02/06 11:14:50;;;;;;;7.17;2.83;;;;;;;;;;5032206;28;20284;-83
2022/02/06 11:17:20;;;;;;;15.20;7.37;;;;;;;;;;5032162;28;20741;-84
2022/02/06 11:20:05;;;;;;;22.40;10.20;;;;;;;;;;5026424;28;20208;-83
2022/02/06 11:22:33;;;;;;;17.60;7.63;;;;;;;;;;5005936;28;20261;-83
2022/02/06 11:25:01;;;;;;;2.73;1.53;;;;;;;;;;5029962;28;20297;-83
2022/02/06 11:27:29;;;;;;;29.17;11.60;;;;;;;;;;5036087;28;20362;-82
2022/02/06 11:29:57;;;;;;;3.53;1.37;;;;;;;;;;5034255;28;20307;-83
2022/02/06 11:32:27;;;;;;;5.07;2.77;;;;;;;;;;5028602;28;20287;-83
2022/02/06 11:34:56;;;;;;;3.27;1.80;;;;;;;;;;5030766;28;20698;-83
2022/02/06 11:46:14;;;;;;;4.47;2.20;;;;;;;;;;5031167;28;20210;-83
2022/02/06 11:48:44;;;;;;;1.60;0.87;;;;;;;;;;5031819;28;20611;-83
2022/02/06 11:51:15;;;;;;;6.33;2.20;;;;;;;;;;5034091;28;20310;-83
2022/02/06 11:53:42;;;;;;;3.10;1.30;;;;;;;;;;5027756;28;20243;-83
2022/02/06 11:56:22;;;;;;;2.30;1.00;;;;;;;;;;5034688;28;20241;-83
2022/02/06 11:58:50;;;;;;;2.47;0.90;;;;;;;;;;5032535;28;20207;-83
2022/02/06 12:01:21;;;;;;;2.80;1.33;;;;;;;;;;5033831;28;20207;-83
2022/02/06 12:04:04;;;;;;;3.23;0.90;;;;;;;;;;5034866;28;20274;-84
2022/02/06 12:06:50;;;;;;;4.17;1.20;;;;;;;;;;5028914;28;20208;-84
2022/02/06 12:09:18;;;;;;;3.40;1.50;;;;;;;;;;5040015;28;20211;-83
2022/02/06 12:12:20;;;;;;;14.40;5.60;;;;;;;;;;5028716;28;20648;-83
2022/02/06 12:14:52;;;;;;;12.87;6.20;;;;;;;;;;5057841;22;20226;-80
2022/02/06 12:17:24;;;;;;;24.43;8.10;;;;;;;;;;5046081;28;20251;-80
2022/02/06 12:20:07;;;;;;;4.10;1.67;;;;;;;;;;5053725;28;20243;-80
2022/02/06 12:22:39;;;;;;;3.03;0.97;;;;;;;;;;5051528;28;20206;-80
2022/02/06 12:25:25;;;;;;;3.70;1.57;;;;;;;;;;5054718;28;20211;-80
2022/02/06 12:27:53;;;;;;;3.90;1.40;;;;;;;;;;5052878;28;20207;-80
2022/02/06 12:30:21;;;;;;;1.90;0.80;;;;;;;;;;5053911;28;20746;-80
2022/02/06 12:32:49;;;;;;;1.23;0.70;;;;;;;;;;5051708;28;20257;-78
2022/02/06 12:38:09;;;;;;;1.87;0.97;;;;;;;;;;5051361;28;20338;-79
2022/02/06 12:40:36;;;;;;;3.20;0.60;;;;;;;;;;5052565;28;20276;-81
2022/02/06 12:43:05;;;;;;;2.67;1.33;;;;;;;;;;5054444;28;20234;-79
2022/02/06 12:45:34;;;;;;;3.43;1.27;;;;;;;;;;5056681;28;20263;-79
2022/02/06 12:48:02;;;;;;;7.30;3.13;;;;;;;;;;5051083;28;20689;-79
2022/02/06 12:50:31;;;;;;;2.93;1.40;;;;;;;;;;5052816;28;20259;-80
2022/02/06 12:52:58;;;;;;;3.13;1.50;;;;;;;;;;5051867;28;20473;-79
2022/02/06 12:55:29;;;;;;;2.63;1.37;;;;;;;;;;5050809;28;20213;-79
2022/02/06 12:57:57;;;;;;;1.40;0.70;;;;;;;;;;5051951;28;20238;-79
2022/02/06 13:00:29;;;;;;;0.60;0.40;;;;;;;;;;5053825;28;20227;-78
2022/02/06 13:03:19;;;;;;;0.83;0.60;;;;;;;;;;5050578;28;20207;-79
2022/02/06 13:05:50;;;;;;;1.50;0.40;;;;;;;;;;5048741;28;20211;-79
2022/02/06 13:08:17;;;;;;;0.30;0.20;;;;;;;;;;5046230;28;20195;-78
2022/02/06 13:10:51;;;;;;;1.10;0.60;;;;;;;;;;5047702;28;20584;-79
2022/02/06 13:13:22;;;;;;;1.20;0.70;;;;;;;;;;5044563;28;20212;-80
2022/02/06 13:15:59;;;;;;;1.27;0.47;;;;;;;;;;5043756;28;20212;-81
2022/02/06 13:18:49;;;;;;;3.53;0.40;;;;;;;;;;5046240;28;20314;-79
2022/02/06 13:21:27;;;;;;;0.50;0.33;;;;;;;;;;5049627;28;20238;-79
2022/02/06 13:24:15;;;;;;;1.37;0.80;;;;;;;;;;5047885;28;20203;-79
2022/02/06 13:26:57;;;;;;;5.57;2.80;;;;;;;;;;5048804;28;20211;-79
2022/02/06 13:29:36;;;;;;;1.33;0.70;;;;;;;;;;5047244;28;20214;-77
2022/02/06 13:32:15;;;;;;;0.20;0.20;;;;;;;;;;5045164;28;20649;-79
2022/02/06 13:34:57;;;;;;;1.03;0.30;;;;;;;;;;5048874;28;20202;-80
2022/02/06 13:37:32;;;;;;;0.60;0.40;;;;;;;;;;5045828;28;20304;-79
2022/02/06 13:40:06;;;;;;;0.57;0.40;;;;;;;;;;5047356;28;20226;-80
2022/02/06 13:42:35;;;;;;;0.80;0.50;;;;;;;;;;5044523;28;20195;-80
2022/02/06 13:45:08;;;;;;;0.57;0.50;;;;;;;;;;5047855;28;20207;-78
2022/02/06 13:47:36;;;;;;;0.33;0.23;;;;;;;;;;5045775;28;20654;-79
2022/02/06 13:50:04;;;;;;;1.67;0.77;;;;;;;;;;5043447;28;20231;-79
2022/02/06 13:52:31;;;;;;;0.40;0.20;;;;;;;;;;5048244;28;20602;-79
2022/02/06 13:55:01;;;;;;;0.57;0.40;;;;;;;;;;5043094;28;20480;-79
2022/02/06 13:57:34;;;;;;;0.87;0.50;;;;;;;;;;5045849;28;20306;-79
2022/02/06 14:00:09;;;;;;;1.27;0.20;;;;;;;;;;5050836;28;20323;-80
2022/02/06 14:02:37;;;;;;;0.83;0.53;;;;;;;;;;5046838;28;20220;-79
2022/02/06 14:05:10;;;;;;;2.53;0.90;;;;;;;;;;5047794;28;20260;-79
2022/02/06 14:07:37;;;;;;;0.80;0.50;;;;;;;;;;5043763;28;20665;-80
2022/02/06 14:10:08;;;;;;;1.33;0.90;;;;;;;;;;5048929;28;20330;-79
2022/02/06 14:12:57;;;;;;;0.70;0.50;;;;;;;;;;5050545;28;20260;-79
2022/02/06 14:15:26;;;;;;;0.37;0.20;;;;;;;;;;5045826;28;20222;-80
2022/02/06 14:17:56;;;;;;;0.30;0.30;;;;;;;;;;5048840;28;20216;-78
2022/02/06 14:20:25;;;;;;;0.60;0.60;;;;;;;;;;5055103;28;20269;-79
2022/02/06 14:22:57;;;;;;;2.00;0.57;;;;;;;;;;5053591;28;20213;-81
2022/02/06 14:25:25;;;;;;;0.73;0.50;;;;;;;;;;5053550;28;20235;-79
2022/02/06 14:27:52;;;;;;;0.80;0.40;;;;;;;;;;5045155;28;20222;-79
2022/02/06 14:30:24;;;;;;;1.23;0.80;;;;;;;;;;5045380;28;20635;-79
2022/02/06 14:33:07;;;;;;;2.90;1.53;;;;;;;;;;5046550;28;20210;-79
2022/02/06 14:35:48;;;;;;;1.77;0.80;;;;;;;;;;5046982;28;20207;-78
2022/02/06 14:38:21;;;;;;;2.40;1.57;;;;;;;;;;5048091;28;20222;-77
2022/02/06 14:40:53;;;;;;;3.00;2.13;;;;;;;;;;5047607;28;20223;-79
2022/02/06 14:43:32;;;;;;;2.03;1.27;;;;;;;;;;5044870;28;20584;-78
2022/02/06 14:46:01;;;;;;;1.87;1.20;;;;;;;;;;5045013;28;20258;-79
2022/02/06 14:48:30;;;;;;;1.20;0.60;;;;;;;;;;5044860;28;20745;-77
2022/02/06 14:50:57;;;;;;;1.43;0.70;;;;;;;;;;5038616;28;20721;-79
2022/02/06 14:53:25;;;;;;;0.50;0.50;;;;;;;;;;5045787;28;20730;-79
2022/02/06 14:55:55;;;;;;;0.70;0.50;;;;;;;;;;5047386;28;20205;-79
2022/02/06 14:58:22;;;;;;;0.77;0.47;;;;;;;;;;5045159;28;20222;-80
2022/02/06 15:00:49;;;;;;;2.47;0.97;;;;;;;;;;5045959;28;20223;-79
2022/02/06 15:03:17;;;;;;;1.60;0.50;;;;;;;;;;5043080;28;20283;-79
2022/02/06 15:05:47;;;;;;;0.60;0.20;;;;;;;;;;5040166;28;20210;-78
2022/02/06 15:08:14;;;;;;;2.57;1.27;;;;;;;;;;5044185;28;20211;-80
2022/02/06 15:10:41;;;;;;;2.07;0.97;;;;;;;;;;5041167;28;20219;-79
2022/02/06 15:13:11;;;;;;;0.60;0.30;;;;;;;;;;5043449;28;20221;-79
2022/02/06 15:15:41;;;;;;;0.20;0.20;;;;;;;;;;5047781;28;20206;-79
2022/02/06 15:18:23;;;;;;;3.60;1.13;;;;;;;;;;5046721;28;20654;-79
2022/02/06 15:20:52;;;;;;;0.87;0.50;;;;;;;;;;5045048;28;20227;-79
2022/02/06 15:23:20;;;;;;;1.43;0.73;;;;;;;;;;5048671;28;20198;-79
2022/02/06 15:25:50;;;;;;;4.40;0.70;;;;;;;;;;5045604;28;20270;-79
2022/02/06 15:28:17;;;;;;;1.87;1.40;;;;;;;;;;5044365;28;20231;-79
2022/02/06 15:30:45;;;;;;;2.57;0.93;;;;;;;;;;5049336;28;20223;-80
2022/02/06 15:33:12;;;;;;;2.13;1.27;;;;;;;;;;5051637;28;20199;-79
2022/02/06 15:35:39;;;;;;;1.30;0.80;;;;;;;;;;5051053;28;20200;-81
2022/02/06 15:38:08;;;;;;;1.53;0.77;;;;;;;;;;5048893;28;20744;-80
2022/02/06 15:40:38;;;;;;;1.73;1.00;;;;;;;;;;5049943;28;20223;-78
2022/02/06 15:43:05;;;;;;;2.37;0.90;;;;;;;;;;5048901;28;20676;-78
2022/02/06 15:45:32;;;;;;;0.77;0.67;;;;;;;;;;5048405;28;20215;-78
2022/02/06 15:47:59;;;;;;;3.00;1.80;;;;;;;;;;5047478;28;20297;-79
2022/02/06 15:50:27;;;;;;;2.50;1.40;;;;;;;;;;5048858;28;20306;-80
2022/02/06 15:52:54;;;;;;;2.87;1.70;;;;;;;;;;5046758;28;20198;-81
2022/02/06 15:55:22;;;;;;;5.60;3.53;;;;;;;;;;5046631;28;20219;-80
2022/02/06 15:57:50;;;;;;;2.93;1.90;;;;;;;;;;5051212;28;20784;-79
2022/02/06 16:00:17;;;;;;;6.37;3.50;;;;;;;;;;5053996;28;20234;-80
2022/02/06 16:02:44;;;;;;;4.20;1.67;;;;;;;;;;5048730;28;20328;-80
2022/02/06 16:05:12;;;;;;;3.40;2.00;;;;;;;;;;5051490;28;20245;-81
2022/02/06 16:07:40;;;;;;;1.93;1.40;;;;;;;;;;5052459;28;20198;-80
2022/02/06 16:10:07;;;;;;;2.87;2.03;;;;;;;;;;5050835;28;20404;-80
2022/02/06 16:12:36;;;;;;;3.67;1.30;;;;;;;;;;5051242;28;20709;-81
2022/02/06 16:15:03;;;;;;;1.97;1.10;;;;;;;;;;5052146;28;20331;-81
2022/02/06 16:17:31;;;;;;;1.80;1.20;;;;;;;;;;5051240;28;20266;-80
2022/02/06 16:19:58;;;;;;;2.20;1.30;;;;;;;;;;5049738;28;20297;-81
2022/02/06 16:22:25;;;;;;;64.23;28.40;;;;;;;;;;5049543;28;20207;-80
2022/02/06 16:24:52;;;;;;;2.10;1.10;;;;;;;;;;5054890;28;20239;-82
2022/02/06 16:27:20;;;;;;;1.87;1.30;;;;;;;;;;5051109;28;20234;-80
2022/02/06 16:29:48;;;;;;;2.03;1.23;;;;;;;;;;5048652;28;20473;-80